LA MYTHIK YOLE le 06/02/2016

Recherche par Dossard : par Nom : par Club :

Place Dossard Nom Prenom Cat. Pl. Cat. Temps Club Sexe
1 576 FOURMONT BENOIT V1 1 01:40:33 AIGLON DU LAMENTIN M
2 566 CAPITAINE Patrice V1 2 01:41:06 SAMARITAINE TEAM TRAIL/US ROBERT M
3 734 VOISARD Guillaume ES 1 01:57:12 RSMA M M
4 541 CHRISTINE Jean-charles V1 3 02:00:24 Colonial M
5 670 MAREM Auguistin V2 1 02:00:39 M
6 820 GREGOIRE Sebastien SE 1 02:01:45 M
7 710 BELLEMARE Bruno V1 4 02:01:55 M
8 558 HAURET Anne SE 1 02:03:02 Mairie sportive F
9 625 THOUVENIN JEREMY SE 2 02:04:44 M
10 825 MALEAU Franck V2 2 02:05:10 M
11 662 GAUDE Jean-Marie SE 3 02:06:30 M
12 827 MACABRE Camille V1 5 02:07:05 FR MORNE PITAULT M
13 589 GUENAUD Didier SE 4 02:08:23 M
14 813 TOSSELI Joris SE 5 02:10:29 M
15 751 LANGLAIS Gwenaël SE 6 02:12:31 MARINE NATIONALE M
16 618 JEAN ELIE Liliane V2 1 02:13:26 Madinina Trail F
17 573 GLÉMAREC Alain V2 3 02:14:45 Triathlon Concarneau M
18 750 HERAUD Martial V1 6 02:17:32 MARINE NATIONALE M
19 663 JASMIN Hubert SE 7 02:18:12 Madinina Bikers M
20 675 LEGAY Théophile JU 1 02:18:28 M
21 636 BOYAVAL JEAN PHILIPPE V1 7 02:19:21 M
22 691 ODRY Boris V1 8 02:19:22 GOLDEN STAR M
23 515 GEORGEON Laure SE 2 02:20:25 F
24 711 ACHARD Raphael V2 4 02:20:35 M
25 733 BÉNARD Jean ES 2 02:20:47 M
26 798 MACCARI Olivier V1 9 02:21:25 M
27 579 COUTURIER Cyrille SE 8 02:21:36 EMSL gravenchon M
28 592 MAREM Luc V2 5 02:22:02 Equip club / MADININA M
29 786 GRAND Fabrice V1 10 02:22:45 M
30 677 PINGUET Romain SE 9 02:22:47 M
31 653 DEPOMMIER MAXIME SE 10 02:22:48 GERMINAL M
32 565 BOULOT Benoit V2 6 02:23:09 SAMARITAINE TEAM TRAIL M
33 698 BELAY Marie Christine SE 3 02:23:14 FR MORNE PITAULT F
34 789 LAMANDE Steve V2 7 02:23:25 M
35 623 LABINSKY Rodolphe V2 8 02:23:57 tchimbe raid M
36 598 CROTET Mathieu SE 11 02:24:00 M
37 776 THOMASI José V3 1 02:24:51 Foyer Rural Morne Pitault M
38 527 SANTUCCI Arnaud SE 12 02:24:55 GERMINAL M
39 501 ALUS Jeremy SE 13 02:25:11 M
40 595 OLANO Germain SE 14 02:25:50 RSMAM M
41 730 BELLEROPHON Daniel SE 15 02:26:15 M
42 725 BOUCHAREB Abdelkader V1 11 02:26:39 M
43 500 DELAUNAY Justine SE 4 02:26:46 F
44 770 CHIFFET JEAN-MARC V1 12 02:27:16 AIGLON M
45 706 LIGUORI LOUIS-ANTOINE V2 9 02:27:19 M
46 763 BORVAL Joel V1 13 02:27:20 TJT Cycas M
47 740 ADOLPHE Claude V1 14 02:27:41 M
48 532 ERICHER CAMPO Johanna V1 1 02:27:59 F
49 412 ?Dossard #412 SE 16 02:28:00 M
50 508 FLAMAND Pascal V2 10 02:28:21 val d europe athletisme M
51 743 ABGUILLERM Florent V2 11 02:29:04 MARINE NATIONALE M
52 726 BELBACHIR HAKIM V1 15 02:29:58 M
53 767 LORENZINI Philippe V3 2 02:30:26 M
54 628 DEVALLEE Cyrille V1 16 02:30:27 M
55 631 LAUNAY Carole V1 2 02:30:27 F
56 727 CITRAIN Jérôme V1 17 02:30:28 M
57 676 MESLIER Nicolas SE 17 02:30:48 RSMAM M
58 607 DOYEN Thierry V1 18 02:31:23 MADININA BIKERS M
59 545 SAULNIER JULIE SE 5 02:31:58 F
60 644 LEGAY Camille V1 3 02:32:18 F
61 518 FABRE Gaetan SE 18 02:32:46 gazelec radonnee M
62 679 RISAL RODOLPHE SE 19 02:32:48 M
63 511 CORLU Jeremie SE 20 02:33:08 Kawann Triathlon club M
64 746 DJAILANI Aboubacar SE 21 02:33:54 MARINE NATIONALE M
65 661 MALHERBE Vincent V1 19 02:34:03 Squale Club M
66 531 ROUSSIE Gaelle SE 6 02:34:04 F
67 594 TEVENET Sandrine V1 4 02:34:32 RSMAM F
68 714 CREVY Marine SE 7 02:35:12 GOLDEN STAR F
69 718 BAZABAS NEFERTI V1 5 02:35:35 F
70 822 PANCALDI Marie Georges V1 6 02:35:58 MANIKOU F
71 613 FORTUNE Frédéric SE 22 02:36:02 M
72 694 THIBAULT BENJAMIN SE 23 02:36:29 VENTOSE M
73 830 BERGOZ Gilda V1 7 02:36:30 F
74 502 DURAND FLORIE SE 24 02:36:32 M
75 600 HAURET Sophie V1 8 02:36:39 F
76 777 THOMASI Alex V2 12 02:37:11 Foyer Rural Morne Pitault M
77 559 PRUDHOMME SOPHIE SE 8 02:37:51 F
78 624 GORA PASCAL V1 20 02:37:57 M
79 569 DEBAY Marc V2 13 02:38:47 DRINK TEAM M
80 774 MARTIAL José V2 14 02:39:29 TCHIMBE RAID M
81 704 FONTAINE FRANTZ V2 15 02:39:39 TCHIMBE RAID M
82 574 JEANNOT Laetitia SE 9 02:39:53 F
83 707 OCTAVE Rudy SE 25 02:39:53 M
84 609 PESCHOUX Alexis SE 26 02:40:11 M
85 729 BERNE Thomas SE 27 02:40:12 TEAM TRAIL VENTOSE M
86 736 PICRODE Marie-Claude V1 9 02:40:29 US ROBERT F
87 742 ABBONA Fanny SE 10 02:40:32 MARINE NATIONALE F
88 817 THALY Rodrigue SE 28 02:40:40 ASC SARA M
89 528 LECOEUR Joël V3 3 02:40:49 M
90 791 MAMIE Jean-Frédéric V2 16 02:41:13 M
91 708 LEVEQUE NGO Céline SE 11 02:41:36 F
92 503 LEROY Romain SE 29 02:41:49 M
93 567 DAIX Pascal V1 21 02:41:50 val d europe athlétisme M
94 739 RALAISOMAY Natacha SE 12 02:41:59 Squale Club F
95 803 COBB Marine SE 13 02:41:59 F
96 648 VELAIDOMESTRY Patrick SE 30 02:42:02 M
97 741 COLAS Pierre V4 1 02:42:19 Squale Club M
98 824 DUCADOS Emilie SE 14 02:42:23 F
99 546 ESARD Eddy SE 31 02:42:32 M
100 556 ROUX Laurent V1 22 02:42:37 M
101 526 FERDINAND Patrick V2 17 02:42:41 M
102 835 HACHIMI NADIA V1 10 02:42:41 F
103 521 CLERGET Jérôme SE 32 02:42:52 RSMA-M M
104 530 KOSTINE Alain V3 4 02:42:59 Manikou M
105 562 RESIDANT Didier V1 23 02:43:13 M
106 667 BERTHELÉ Vincent SE 33 02:43:16 Team Landi Triathlon M
107 728 FRUCHON Lionel V1 24 02:43:38 M
108 529 MORIN KARL V1 25 02:43:48 M
109 599 GRIFFEILLE Laurent SE 34 02:43:54 M
110 603 EDOUARD EMMANUEL V1 26 02:44:12 M
111 781 DALMAT François V1 27 02:44:19 M
112 793 PIVERT Gilles V1 28 02:44:19 M
113 744 BELLANGER Virginie SE 15 02:44:36 MARINE NATIONALE F
114 826 SALAUN Anthony SE 35 02:44:36 M
115 627 KLINCKEMAILLIE Vincent SE 36 02:44:42 M
116 693 TALMANN André V4 2 02:44:49 tchimbe raid M
117 775 PINVILLE Bruno V1 29 02:45:02 M
118 738 MENIR Bernard V1 30 02:45:07 Bernard MENIR M
119 705 PALMIER Rosalyn SE 37 02:45:37 Tchimbé Raid M
120 641 THEODORE ALAIN V2 18 02:45:42 M
121 568 TELCIDE CHRISTIAN V3 5 02:46:05 Aiglon du Lamentin M
122 731 BELLEROPHON Alex V1 31 02:46:36 club tchimbé M
123 512 LECLECH Yannick V2 19 02:46:41 M
124 563 PISTOL MIMI SE 16 02:47:06 F
125 660 CLOE Jean Louis V1 32 02:47:43 M
126 626 LAVENTURE Philippe V1 33 02:47:45 CYIM M
127 828 CABRERO Isabel V1 11 02:47:47 val d europe athlétisme F
128 658 PEL NATHALIE V1 12 02:47:49 F
129 788 TINAS DOMINIQUE V1 34 02:48:03 STT M
130 680 POMPANON Clement SE 38 02:48:13 RSMAM M
131 654 GALLON CHRISTINE V2 2 02:48:23 AMCF F
132 605 AUVE NICOLAS V1 35 02:48:30 M
133 525 RAYMOND Guillaume SE 39 02:48:56 pass running M
134 602 JOVINAC Patrick V2 20 02:48:56 M
135 548 OGEZ Sebastien SE 40 02:49:56 Germinal M
136 632 GOURRAUD Aurélien SE 41 02:49:59 M
137 758 VENGETO Bernard V2 21 02:50:16 FJT Cycas M
138 610 SYLVESTRE Franck V1 36 02:51:11 Kawann Triathlon Club M
139 792 ADELON MARIE-NOELLE V2 3 02:51:26 AIGLON F
140 833 DEHER Sandra SE 17 02:52:21 F
141 549 LANSADE Alexandre SE 42 02:52:23 M
142 678 FILIN Vincent V1 37 02:52:26 M
143 554 GHANEM Mohamed SE 43 02:52:26 GERMINAL M
144 712 ROSIER Jean-Marc V1 38 02:52:27 M
145 765 MONROC Marie Françoise V2 4 02:52:33 ASRFO / CTR/Baroudeur F
146 621 BARBIER Florent V1 39 02:53:56 M
147 810 DE HENRY Herve V2 22 02:54:26 MANIKOU M
148 800 ROUBLIQUE Hubert V1 40 02:54:39 TCHIMBE RAID M
149 771 HAMON Laure V1 13 02:54:45 F
150 721 SERENI Ghislaine V3 1 02:54:46 A.M.C.F. F
151 790 HENRY Joane SE 18 02:55:14 F
152 723 LEFEBVRE Herve V1 41 02:55:57 M
153 635 LOTTEAU Margaux SE 19 02:56:14 F
154 686 LESUEUR Jérôme V1 42 02:57:18 M
155 811 DE HENRY Myriam V2 5 02:57:18 MANIKOU F
156 564 PISTOL Olivier V1 43 02:57:24 M
157 524 PLAYEZ Thibault SE 44 02:57:24 M
158 664 FILIN Jasmine SE 20 02:57:33 F
159 719 RONDEAUX Emilie SE 21 02:57:48 Team Babilon F
160 823 ZAMY Sonia V2 6 02:58:19 Mairie sportive F
161 802 RAILLARD Audrey SE 22 02:58:28 F
162 762 TAUZIA Muriel V2 7 02:58:28 ASRFO / CTR F
163 506 MICOLAU Séverine SE 23 02:58:33 F
164 537 CIDALISE-MONTAISE Sandra V1 14 02:58:33 FFSE F
165 507 DIETRICH LAETITIA SE 24 02:58:33 F
166 669 EDMOND Sandra SE 25 02:58:34 F
167 590 JULIE COM SE 26 02:58:45 F
168 612 GIBOYAU Marc SE 45 02:58:45 M
169 671 MUIN Laurent V1 44 02:58:47 Sud corse triathlon M
170 672 MUIN Murielle V1 15 02:58:47 Sud corse triathlon F
171 785 FABREGUES Marie-laure V1 16 02:59:33 F
172 683 MAGOTTEAUX TANGUY ES 3 02:59:34 M
173 583 BIROSTE Nicolas SE 46 02:59:35 pass running M
174 622 BARBIER Laetitia V1 17 03:00:00 F
175 629 MAHE François-Xavier V2 23 03:00:06 M
176 547 RIOU Sophie V1 18 03:00:41 vauclin athlétic club F
177 551 MULARD Frederic V1 45 03:00:46 M
178 715 BLAZY Sonia V1 19 03:01:30 Golden star F
179 504 FUSTIER Océane SE 27 03:01:47 F
180 633 KOUMBA-BOUTIN Louis-Paul SE 47 03:02:13 GOLDEN STAR M
181 535 RIOU YANNICK V1 46 03:02:52 M
182 557 TOURREILLE Sophie SE 28 03:02:54 F
183 805 BRIGITTE Marie Denise V2 8 03:02:55 MANIKOU F
184 797 BRET Teddy V1 47 03:03:10 M
185 768 ADELAIDE Daniel V3 6 03:03:17 Daniel ADELAIDE M
186 759 MARIN Nicolas V1 48 03:03:21 M
187 690 DEGRAIN Marie-Edmée V2 9 03:03:24 passrunning F
188 681 GREMONT Cedric SE 48 03:05:27 M
189 539 ROSSI Anne-Karine SE 29 03:05:40 F
190 687 GROSBOIS Alicia SE 30 03:05:51 F
191 519 ROCHE Beryl V2 10 03:06:06 F
192 533 URSULET Harry SE 49 03:06:10 golden star M
193 753 MONJARDE Marine SE 31 03:06:14 MARINE NATIONALE F
194 571 BONDÁR ATTILA V1 49 03:06:31 M
195 722 MARTINON Jean-Charles SE 50 03:06:43 M
196 735 PITEL Jean-Baptiste SE 51 03:08:02 M
197 657 MER Andre V2 24 03:08:04 Germinal M
198 832 CHAROY Céline SE 32 03:08:09 Mairie sportive F
199 522 LEZIN Thierry V2 25 03:08:45 CLUB MANIKOU M
200 513 LEDOYEN Philippe V2 26 03:09:49 CLUB MANIKOU M
201 652 DUCHAMP DE CHASTAIGNÉ Mathieu V2 27 03:10:23 M
202 688 PIVATY Marika SE 33 03:10:31 F
203 689 MATTEI CAROLINE SE 34 03:10:52 F
204 700 BEAUCHESNE Mathilde SE 35 03:11:20 F
205 523 VALVERDE Rachel V1 20 03:11:25 manikou F
206 787 JEAN BAPTISTE Gisele V2 11 03:11:36 CTR F
207 779 BENETO Michelle V2 12 03:11:36 Foyer Rural Morne Pitault F
208 796 CORDIER Theuns SE 52 03:12:04 M
209 684 BARTHE Elisabeth SE 36 03:12:13 Golden Star F
210 555 LACROSSE KARYN V1 21 03:12:21 F
211 534 AUSTER Xavier V1 50 03:13:16 M
212 818 RENE CORAIL SYLVAIN V1 51 03:13:34 M
213 666 PORHEL Caroline SE 37 03:13:43 la roche sports nature F
214 585 CATIN Yves-Michel V1 52 03:13:50 CLUB TI CHIMEN M
215 799 BEN MERZOUG Sarah SE 38 03:13:52 F
216 604 MICHEL Max V4 3 03:14:10 Manikou M
217 794 RAFALD AUDREY SE 39 03:14:23 mairie sportive F
218 550 ZOZIME Marie-Nelly V1 22 03:14:23 F
219 611 BROZEC Bruno V2 28 03:14:45 M
220 649 RIMBAUD MICHEL V3 7 03:15:07 M
221 755 POULIN Loďc SE 53 03:15:53 MARINE NATIONALE M
222 757 ROUSSIE Maximilien SE 54 03:15:57 MARINE NATIONALE M
223 614 HENRI Elodie SE 40 03:16:17 F
224 760 LOTAUT Béatrice V1 23 03:16:37 MANIKOU F
225 809 BODROS Isabelle V1 24 03:16:55 F
226 584 MONTHIEUX ASTRID V1 25 03:17:20 SPS TEAM F
227 596 RIAM FRANTZ V1 53 03:17:52 CTR M
228 831 JACOB Jean Christophe V2 29 03:18:16 M
229 646 LEON FABRICE SE 55 03:18:16 M
230 617 GERMANY TATIANA V1 26 03:19:15 MANIKOU/SPS TEAM F
231 702 MANYA Martine V2 13 03:19:55 F
232 620 ANGEVIN ANNICK V1 27 03:19:57 MANIKOU/TLT F
233 577 FRANCOIS Ludovic V1 54 03:21:26 M
234 637 PINAT HELENE SE 41 03:21:47 F
235 540 MORET Caroline SE 42 03:22:04 F
236 674 JOSEPH MONETTE V1 28 03:22:14 F
237 806 GENTIL Albert V1 55 03:22:16 M
238 601 LAURENT Caroline SE 43 03:24:08 F
239 821 DARRAU CORINNE V1 29 03:26:25 F
240 645 BOCLE PIERRE SE 56 03:26:26 M
241 685 MAREL Vanessa SE 44 03:26:32 F
242 834 VICTORIN Renée V2 14 03:26:42 MANIKOU F
243 575 GRATALOUP GAELLE SE 45 03:27:23 GOLDEN STAR F
244 640 MOULONGUET PATRICE V1 56 03:27:40 M
245 720 CHARPENTIER-TITY Georges-Louis V1 57 03:29:43 CARAĎB-MOTER M
246 745 BUTTELLI Benjamin SE 57 03:30:36 MARINE NATIONALE M
247 695 LABORDE Laurence V1 30 03:30:48 F
248 696 LABORDE PIERRE V1 58 03:30:48 M
249 536 TANDAVARAYEN Viviane V3 2 03:31:03 F
250 520 TANDAVARAYEN Emmanuel V3 8 03:31:32 M
251 769 MARIE-JOSEPH CHRISTELLE V1 31 03:34:23 F
252 538 DI GERONIMO Benedicte SE 46 03:34:23 F
253 819 TOUCHAIN Erwan SE 58 03:35:14 M
254 795 DE REYNAL Ludovic V1 59 03:35:26 M
255 655 LARGEN Gérard V1 60 03:35:39 Tchimbé Raid M
256 756 RONDEL Muriel V2 15 03:36:04 MARINE NATIONALE F
257 682 MAGOTTEAUX PATRICE V1 61 03:36:11 M
258 807 RICHEUX Laure V1 32 03:36:16 F
259 703 LOUISY Loic SE 59 03:37:28 AMCF M
260 591 HINCHET GIRAUD Elisabeth SE 47 03:37:30 F
261 553 JAMET Paul V2 30 03:37:55 M
262 552 LEPEZ ANNABELLE SE 48 03:37:55 F
263 561 LANDRY Lucette Andrée V2 16 03:39:35 TCHIMBE RAID F
264 808 GONTRAND Patrice V1 62 03:40:07 M
265 544 STEWART Linda SE 49 03:40:07 F
266 814 JOSEPH SYLVESTRE Béatrice V1 33 03:41:20 SAM HORIZON F
267 630 MOUFLARD Jacques V1 63 03:42:04 M
268 804 MAGDELEINE Yvette V2 17 03:42:51 F
269 737 PLEUVRY Benedicte V1 34 03:43:18 F
270 560 GIARD DELPHINE V1 35 03:44:54 F
271 697 CAZENEUVE PHILIPPE V3 9 03:46:55 M
272 642 GAILLARD Chantale V1 36 03:47:51 F
273 643 GAILLARD PIERRE ERIC V1 64 03:47:51 M
274 638 KLINCKEMAILLIE Alain V3 10 03:50:58 M
275 650 RETORY EVELINE V2 18 03:51:00 F
276 656 CHICHE CHRISTINE V2 19 03:53:52 F
277 778 MARIE SAINTE David SE 60 03:55:04 Foyer Rural Morne Pitault M
278 634 FLAMAND Karine V1 37 03:59:44 F
279 587 MONROSE Cindy SE 50 03:59:48 F
280 588 BONNIN AUDREY SE 51 04:00:31 F
281 619 REINE Sandrine V1 38 04:01:21 Aiglon du Lamentin F
282 717 SAINT-LOUIS-AUGUSTIN IRENE V3 3 04:05:51 manikou F
283 505 FORT Sebastien SE 61 04:05:55 M
284 593 POCQUET Nelly V1 39 04:13:51 manikou F
285 665 WEHRLE Liviane SE 52 04:13:51 F
286 651 BESSIRAL Mélaine SE 53 04:15:32 F
287 772 CINNA Mireille V1 40 04:15:32 SAM HORIZON F
288 586 LOUISON Claudia V1 41 04:15:44 CLUB TI CHIMEN F
289 616 WATRELOT Tania V2 20 04:21:17 F
290 701 HEVIN RAMOND Anne V2 21 04:25:54 F
291 801 CASTEL Sylvie V2 22 04:35:43 F
292 812 VALLADE Patricia V1 42 04:36:03 F
293 615 LOBAS DOMINIQUE V1 43 05:13:30 TLT972, MANIKOU F